createdAt,value
2019-02-17T00:00:41.660Z,13.63
2019-02-17T00:03:11.028Z,11.90
2019-02-17T00:05:40.414Z,12.73
2019-02-17T00:08:09.791Z,11.73
2019-02-17T00:10:39.119Z,13.23
2019-02-17T00:13:08.490Z,13.40
2019-02-17T00:15:37.892Z,12.57
2019-02-17T00:18:07.297Z,12.23
2019-02-17T00:20:36.639Z,13.50
2019-02-17T00:23:05.968Z,12.97
2019-02-17T00:25:35.308Z,12.93
2019-02-17T00:28:04.706Z,14.00
2019-02-17T00:30:34.098Z,13.73
2019-02-17T00:33:03.479Z,12.60
2019-02-17T00:35:33.246Z,13.07
2019-02-17T00:38:02.864Z,13.20
2019-02-17T00:40:32.232Z,13.57
2019-02-17T00:43:01.591Z,13.83
2019-02-17T00:45:31.131Z,11.77
2019-02-17T00:48:02.848Z,12.23
2019-02-17T00:50:36.299Z,12.73
2019-02-17T00:53:05.694Z,12.73
2019-02-17T00:55:35.051Z,13.10
2019-02-17T00:58:04.469Z,13.37
2019-02-17T01:00:33.824Z,12.70
2019-02-17T01:03:03.426Z,13.40
2019-02-17T01:05:32.780Z,13.47
2019-02-17T01:08:02.142Z,14.37
2019-02-17T01:10:31.547Z,15.03
2019-02-17T01:13:01.063Z,15.03
2019-02-17T01:15:30.444Z,15.07
2019-02-17T01:17:59.890Z,13.90
2019-02-17T01:20:29.256Z,16.07
2019-02-17T01:22:58.624Z,15.13
2019-02-17T01:25:28.334Z,14.73
2019-02-17T01:27:57.740Z,15.87
2019-02-17T01:30:27.106Z,16.17
2019-02-17T01:36:27.435Z,15.90
2019-02-17T01:38:55.472Z,16.03
2019-02-17T01:41:48.137Z,15.87
2019-02-17T01:44:17.488Z,16.03
2019-02-17T01:46:46.905Z,15.10
2019-02-17T01:49:16.320Z,15.17
2019-02-17T01:51:45.693Z,15.63
2019-02-17T01:54:15.123Z,15.10
2019-02-17T01:56:44.901Z,15.63
2019-02-17T01:59:14.280Z,15.13
2019-02-17T02:01:43.665Z,15.80
2019-02-17T02:04:13.035Z,16.00
2019-02-17T02:06:42.530Z,16.83
2019-02-17T02:09:11.894Z,16.43
2019-02-17T02:11:42.921Z,18.03
2019-02-17T02:14:12.429Z,17.97
2019-02-17T02:16:41.823Z,18.40
2019-02-17T02:19:11.324Z,18.40
2019-02-17T02:21:40.713Z,18.40
2019-02-17T02:24:10.093Z,18.13
2019-02-17T02:26:39.495Z,17.33
2019-02-17T02:29:09.001Z,17.27
2019-02-17T02:31:38.395Z,17.87
2019-02-17T02:34:07.743Z,17.67
2019-02-17T02:36:37.108Z,18.60
2019-02-17T02:39:07.805Z,17.47
2019-02-17T02:41:37.114Z,19.30
2019-02-17T02:44:06.486Z,17.93
2019-02-17T02:46:35.872Z,17.70
2019-02-17T02:49:05.220Z,17.07
2019-02-17T02:51:34.611Z,17.13
2019-02-17T02:54:04.003Z,17.80
2019-02-17T02:56:33.367Z,18.07
2019-02-17T02:59:02.737Z,19.17
2019-02-17T03:01:32.202Z,18.03
2019-02-17T03:04:01.598Z,18.40
2019-02-17T03:06:49.885Z,18.43
2019-02-17T03:09:19.276Z,18.03
2019-02-17T03:11:48.938Z,18.07
2019-02-17T03:14:18.470Z,18.17
2019-02-17T03:16:47.875Z,18.47
2019-02-17T03:19:17.276Z,17.90
2019-02-17T03:21:46.668Z,17.07
2019-02-17T03:24:16.067Z,17.97
2019-02-17T03:26:45.447Z,16.93
2019-02-17T03:29:14.892Z,17.10
2019-02-17T03:31:44.306Z,18.47
2019-02-17T03:34:13.637Z,17.07
2019-02-17T03:36:42.996Z,16.83
2019-02-17T03:39:21.625Z,17.73
2019-02-17T03:41:48.287Z,18.20
2019-02-17T03:44:17.656Z,17.27
2019-02-17T03:46:47.029Z,17.87
2019-02-17T03:49:16.479Z,17.10
2019-02-17T03:51:45.882Z,17.07
2019-02-17T03:54:15.213Z,16.93
2019-02-17T03:56:44.681Z,16.90
2019-02-17T03:59:14.070Z,16.87
2019-02-17T04:01:43.451Z,17.53
2019-02-17T04:04:12.883Z,17.47
2019-02-17T04:06:42.307Z,17.10
2019-02-17T04:09:11.662Z,18.43
2019-02-17T04:11:41.042Z,18.17
2019-02-17T04:14:10.487Z,16.97
2019-02-17T04:16:39.854Z,18.20
2019-02-17T04:19:09.283Z,18.00
2019-02-17T04:21:38.657Z,18.43
2019-02-17T04:24:08.087Z,18.67
2019-02-17T04:26:37.471Z,17.33
2019-02-17T04:29:06.848Z,17.87
2019-02-17T04:31:36.249Z,17.83
2019-02-17T04:34:05.727Z,17.17
2019-02-17T04:36:35.171Z,17.90
2019-02-17T04:39:05.775Z,17.97
2019-02-17T04:41:35.108Z,17.73
2019-02-17T04:44:07.260Z,18.90
2019-02-17T04:46:36.642Z,18.40
2019-02-17T04:49:06.171Z,18.00
2019-02-17T04:51:35.590Z,18.07
2019-02-17T04:54:04.995Z,18.20
2019-02-17T04:56:39.153Z,18.70
2019-02-17T04:59:18.007Z,17.80
2019-02-17T05:01:50.791Z,20.83
2019-02-17T05:04:31.822Z,19.13
2019-02-17T05:07:01.331Z,18.03
2019-02-17T05:09:30.673Z,18.20
2019-02-17T05:12:00.213Z,19.30
2019-02-17T05:14:29.633Z,20.03
2019-02-17T05:16:59.077Z,19.97
2019-02-17T05:19:28.493Z,18.93
2019-02-17T05:21:57.952Z,18.97
2019-02-17T05:24:27.366Z,17.63
2019-02-17T05:26:56.757Z,17.97
2019-02-17T05:29:26.158Z,18.00
2019-02-17T05:31:55.580Z,17.67
2019-02-17T05:34:24.998Z,19.27
2019-02-17T05:36:54.379Z,18.00
2019-02-17T05:39:23.958Z,18.20
2019-02-17T05:41:53.381Z,18.77
2019-02-17T05:44:22.799Z,19.00
2019-02-17T05:46:52.490Z,18.93
2019-02-17T05:49:21.889Z,19.77
2019-02-17T05:51:51.296Z,18.77
2019-02-17T05:54:20.729Z,19.03
2019-02-17T05:56:50.181Z,17.90
2019-02-17T05:59:19.534Z,18.00
2019-02-17T06:01:48.910Z,18.33
2019-02-17T06:04:18.284Z,18.83
2019-02-17T06:06:47.781Z,20.20
2019-02-17T06:09:17.175Z,21.17
2019-02-17T06:11:46.499Z,22.20
2019-02-17T06:14:15.885Z,25.13
2019-02-17T06:16:45.287Z,22.80
2019-02-17T06:19:14.642Z,21.43
2019-02-17T06:21:44.089Z,21.17
2019-02-17T06:24:13.508Z,22.70
2019-02-17T06:26:42.950Z,21.67
2019-02-17T06:29:12.339Z,28.57
2019-02-17T06:31:44.040Z,34.77
2019-02-17T06:34:13.390Z,25.63
2019-02-17T06:36:42.838Z,22.03
2019-02-17T06:39:12.171Z,22.17
2019-02-17T06:41:41.543Z,22.60
2019-02-17T06:44:10.904Z,21.53
2019-02-17T06:46:45.227Z,21.93
2019-02-17T06:49:14.582Z,21.20
2019-02-17T06:51:43.943Z,28.57
2019-02-17T06:54:13.344Z,21.13
2019-02-17T06:56:47.444Z,21.40
2019-02-17T06:59:16.827Z,20.60
2019-02-17T07:01:46.302Z,20.40
2019-02-17T07:04:15.727Z,21.20
2019-02-17T07:06:58.463Z,21.67
2019-02-17T07:09:27.803Z,21.07
2019-02-17T07:11:57.256Z,21.10
2019-02-17T07:14:26.654Z,21.83
2019-02-17T07:16:56.062Z,21.57
2019-02-17T07:19:25.453Z,21.27
2019-02-17T07:21:54.851Z,20.97
2019-02-17T07:24:24.239Z,21.87
2019-02-17T07:26:53.661Z,22.10
2019-02-17T07:29:23.037Z,43.53
2019-02-17T07:31:52.504Z,24.87
2019-02-17T07:34:21.866Z,23.40
2019-02-17T07:36:51.280Z,22.70
2019-02-17T07:39:20.703Z,23.87
2019-02-17T07:41:50.042Z,23.77
2019-02-17T07:44:19.443Z,22.57
2019-02-17T07:46:48.839Z,22.00
2019-02-17T07:49:18.237Z,24.00
2019-02-17T07:51:47.591Z,23.37
2019-02-17T07:54:17.051Z,23.17
2019-02-17T07:56:48.431Z,23.67
2019-02-17T07:59:17.486Z,24.70
2019-02-17T08:01:47.400Z,23.73
2019-02-17T08:04:16.803Z,23.23
2019-02-17T08:06:46.165Z,22.13
2019-02-17T08:09:15.548Z,22.03
2019-02-17T08:11:44.920Z,22.87
2019-02-17T08:14:14.319Z,22.10
2019-02-17T08:16:43.687Z,22.27
2019-02-17T08:19:13.075Z,22.13
2019-02-17T08:21:42.494Z,23.80
2019-02-17T08:24:11.910Z,23.90
2019-02-17T08:26:41.303Z,22.67
2019-02-17T08:29:10.706Z,23.27
2019-02-17T08:31:40.129Z,23.63
2019-02-17T08:37:41.359Z,20.00
2019-02-17T08:40:10.937Z,20.13
2019-02-17T08:42:40.307Z,20.57
2019-02-17T08:45:10.042Z,22.43
2019-02-17T08:47:39.487Z,20.57
2019-02-17T08:50:10.056Z,20.80
2019-02-17T08:52:39.513Z,21.37
2019-02-17T08:55:09.577Z,21.30
2019-02-17T08:57:39.017Z,40.90
2019-02-17T09:00:10.196Z,21.67
2019-02-17T09:02:40.849Z,20.17
2019-02-17T09:05:10.391Z,21.03
2019-02-17T09:07:39.827Z,19.73
2019-02-17T09:10:10.827Z,18.40
2019-02-17T09:12:40.202Z,19.93
2019-02-17T09:15:11.312Z,19.87
2019-02-17T09:17:40.702Z,19.20
2019-02-17T09:20:10.741Z,18.83
2019-02-17T09:22:40.187Z,19.73
2019-02-17T09:25:10.584Z,19.70
2019-02-17T09:27:39.996Z,16.63
2019-02-17T09:30:12.879Z,18.57
2019-02-17T09:32:42.307Z,18.03
2019-02-17T09:35:11.713Z,17.40
2019-02-17T09:37:41.166Z,17.77
2019-02-17T09:40:11.298Z,18.40
2019-02-17T09:42:40.691Z,19.97
2019-02-17T09:45:11.867Z,18.60
2019-02-17T09:47:41.280Z,18.60
2019-02-17T09:50:12.330Z,19.17
2019-02-17T09:52:41.664Z,19.87
2019-02-17T09:55:11.217Z,18.23
2019-02-17T09:57:40.612Z,17.43
2019-02-17T10:00:11.603Z,18.27
2019-02-17T10:02:40.968Z,18.03
2019-02-17T10:05:10.367Z,18.70
2019-02-17T10:07:39.758Z,18.93
2019-02-17T10:10:11.483Z,18.63
2019-02-17T10:12:40.974Z,17.23
2019-02-17T10:15:11.862Z,18.87
2019-02-17T10:17:41.268Z,18.97
2019-02-17T10:20:12.493Z,19.07
2019-02-17T10:22:41.969Z,17.87
2019-02-17T10:25:11.625Z,19.30
2019-02-17T10:27:41.058Z,17.63
2019-02-17T10:30:12.405Z,19.17
2019-02-17T10:32:41.883Z,18.70
2019-02-17T10:35:11.223Z,17.60
2019-02-17T10:37:40.655Z,18.40
2019-02-17T10:40:11.820Z,17.70
2019-02-17T10:42:41.277Z,17.43
2019-02-17T10:45:11.298Z,16.67
2019-02-17T10:47:40.747Z,17.27
2019-02-17T10:50:10.842Z,16.43
2019-02-17T10:52:40.241Z,17.97
2019-02-17T10:55:09.938Z,17.47
2019-02-17T10:57:39.336Z,17.10
2019-02-17T11:00:12.399Z,16.63
2019-02-17T11:02:47.224Z,16.80
2019-02-17T11:05:13.072Z,16.63
2019-02-17T11:07:42.477Z,17.20
2019-02-17T11:10:11.897Z,15.80
2019-02-17T11:12:41.320Z,15.97
2019-02-17T11:15:12.738Z,16.63
2019-02-17T11:17:42.180Z,16.50
2019-02-17T11:20:11.798Z,15.97
2019-02-17T11:22:41.157Z,16.40
2019-02-17T11:25:10.556Z,16.53
2019-02-17T11:27:39.927Z,16.90
2019-02-17T11:30:11.567Z,16.70
2019-02-17T11:32:40.956Z,16.27
2019-02-17T11:35:10.505Z,14.77
2019-02-17T11:37:40.020Z,15.23
2019-02-17T11:40:11.021Z,14.73
2019-02-17T11:42:40.437Z,15.40
2019-02-17T11:45:12.630Z,14.00
2019-02-17T11:47:42.025Z,16.20
2019-02-17T11:50:11.524Z,16.30
2019-02-17T11:52:40.927Z,14.57
2019-02-17T11:55:11.843Z,14.87
2019-02-17T11:57:41.294Z,13.13
2019-02-17T12:00:21.077Z,13.10
2019-02-17T12:02:50.489Z,13.37
2019-02-17T12:05:19.916Z,13.17
2019-02-17T12:07:49.422Z,12.87
2019-02-17T12:10:18.976Z,12.67
2019-02-17T12:12:48.405Z,13.37
2019-02-17T12:15:17.804Z,13.00
2019-02-17T12:17:47.365Z,12.73
2019-02-17T12:20:43.266Z,13.93
2019-02-17T12:23:16.711Z,12.63
2019-02-17T12:25:56.251Z,12.17
2019-02-17T12:28:50.599Z,12.73
2019-02-17T12:31:26.807Z,11.90
2019-02-17T12:33:56.240Z,11.07
2019-02-17T12:36:25.656Z,10.80
2019-02-17T12:38:57.208Z,9.70
2019-02-17T12:41:26.611Z,10.70
2019-02-17T12:43:56.035Z,10.70
2019-02-17T12:46:25.417Z,11.67
2019-02-17T12:48:54.794Z,10.67
2019-02-17T12:51:26.294Z,9.77
2019-02-17T12:53:55.764Z,11.10
2019-02-17T12:56:25.134Z,10.67
2019-02-17T12:58:54.516Z,10.30
2019-02-17T13:01:23.907Z,10.03
2019-02-17T13:03:53.328Z,9.70
2019-02-17T13:06:23.473Z,10.83
2019-02-17T13:08:52.961Z,10.43
2019-02-17T13:11:22.368Z,10.43
2019-02-17T13:13:51.737Z,10.37
2019-02-17T13:16:21.125Z,9.30
2019-02-17T13:18:50.530Z,8.67
2019-02-17T13:21:19.939Z,8.87
2019-02-17T13:23:49.329Z,9.73
2019-02-17T13:26:18.741Z,8.30
2019-02-17T13:28:48.143Z,7.33
2019-02-17T13:31:17.521Z,7.90
2019-02-17T13:33:46.948Z,8.53
2019-02-17T13:36:16.328Z,8.10
2019-02-17T13:38:45.674Z,9.07
2019-02-17T13:41:15.059Z,7.13
2019-02-17T13:43:44.445Z,7.57
2019-02-17T13:46:13.829Z,6.67
2019-02-17T13:48:43.239Z,7.73
2019-02-17T13:51:12.628Z,8.87
2019-02-17T13:53:42.036Z,6.50
2019-02-17T13:56:11.445Z,6.10
2019-02-17T13:58:40.827Z,6.87
2019-02-17T14:01:10.264Z,6.20
2019-02-17T14:03:48.234Z,6.60
2019-02-17T14:06:10.821Z,11.20
2019-02-17T14:08:40.182Z,7.72
2019-02-17T14:11:09.538Z,11.13
2019-02-17T14:13:38.898Z,11.10
2019-02-17T14:16:08.291Z,10.83
2019-02-17T14:18:37.680Z,8.17
2019-02-17T14:21:07.101Z,7.50
2019-02-17T14:23:36.528Z,7.63
2019-02-17T14:26:05.898Z,7.30
2019-02-17T14:28:35.298Z,7.40
2019-02-17T14:31:04.720Z,6.87
2019-02-17T14:33:34.165Z,7.37
2019-02-17T14:36:03.515Z,8.33
2019-02-17T14:38:33.000Z,7.80
2019-02-17T14:41:02.348Z,7.80
2019-02-17T14:43:31.715Z,8.40
2019-02-17T14:46:01.103Z,7.97
2019-02-17T14:48:30.472Z,8.40
2019-02-17T14:50:59.911Z,8.10
2019-02-17T14:53:29.287Z,8.30
2019-02-17T14:55:58.626Z,8.70
2019-02-17T14:58:28.040Z,8.30
2019-02-17T15:00:57.445Z,8.40
2019-02-17T15:03:26.826Z,7.53
2019-02-17T15:05:56.197Z,7.37
2019-02-17T15:08:25.596Z,7.87
2019-02-17T15:10:54.971Z,8.23
2019-02-17T15:13:24.921Z,8.70
2019-02-17T15:15:54.420Z,8.77
2019-02-17T15:18:23.785Z,7.50
2019-02-17T15:20:53.178Z,8.70
2019-02-17T15:23:22.575Z,7.70
2019-02-17T15:25:51.982Z,8.47
2019-02-17T15:28:21.335Z,8.20
2019-02-17T15:30:50.712Z,8.00
2019-02-17T15:33:20.194Z,8.47
2019-02-17T15:35:49.634Z,6.83
2019-02-17T15:38:19.065Z,8.93
2019-02-17T15:40:48.513Z,8.53
2019-02-17T15:43:17.905Z,9.50
2019-02-17T15:45:47.247Z,10.30
2019-02-17T15:48:16.658Z,12.43
2019-02-17T15:50:46.061Z,12.13
2019-02-17T15:53:15.468Z,14.97
2019-02-17T15:55:44.864Z,16.40
2019-02-17T15:58:14.271Z,11.40
2019-02-17T16:00:43.929Z,11.27
2019-02-17T16:03:13.333Z,12.77
2019-02-17T16:05:43.728Z,12.70
2019-02-17T16:08:13.342Z,10.77
2019-02-17T16:10:42.782Z,9.97
2019-02-17T16:13:12.240Z,18.57
2019-02-17T16:15:41.626Z,12.20
2019-02-17T16:18:11.069Z,12.13
2019-02-17T16:20:40.506Z,13.77
2019-02-17T16:23:09.897Z,13.77
2019-02-17T16:25:39.256Z,14.80
2019-02-17T16:28:08.681Z,17.53
2019-02-17T16:30:38.076Z,18.13
2019-02-17T16:33:07.466Z,14.17
2019-02-17T16:35:36.941Z,15.73
2019-02-17T16:38:06.322Z,15.37
2019-02-17T16:40:35.716Z,14.27
2019-02-17T16:43:05.654Z,14.50
2019-02-17T16:45:35.081Z,13.03
2019-02-17T16:48:04.535Z,16.27
2019-02-17T16:50:33.968Z,15.80
2019-02-17T16:53:03.522Z,17.25
2019-02-17T16:55:32.994Z,18.23
2019-02-17T16:58:02.535Z,17.30
2019-02-17T17:00:31.970Z,17.37
2019-02-17T17:03:01.556Z,18.00
2019-02-17T17:05:30.979Z,16.37
2019-02-17T17:08:00.372Z,16.13
2019-02-17T17:10:29.809Z,16.03
2019-02-17T17:12:59.179Z,16.17
2019-02-17T17:15:28.545Z,14.63
2019-02-17T17:17:57.942Z,15.10
2019-02-17T17:20:27.291Z,14.63
2019-02-17T17:22:56.679Z,15.70
2019-02-17T17:25:26.200Z,16.03
2019-02-17T17:27:55.666Z,17.17
2019-02-17T17:30:25.156Z,14.97
2019-02-17T17:32:54.674Z,15.27
2019-02-17T17:35:24.094Z,15.40
2019-02-17T17:37:53.528Z,15.67
2019-02-17T17:40:22.967Z,14.07
2019-02-17T17:42:52.364Z,15.77
2019-02-17T17:45:21.798Z,15.67
2019-02-17T17:47:51.246Z,15.70
2019-02-17T17:50:22.300Z,15.10
2019-02-17T17:52:51.906Z,15.70
2019-02-17T17:55:21.383Z,16.37
2019-02-17T17:57:50.750Z,15.67
2019-02-17T18:00:20.954Z,15.30
2019-02-17T18:02:50.411Z,15.13
2019-02-17T18:05:19.787Z,16.20
2019-02-17T18:07:49.342Z,17.00
2019-02-17T18:10:19.500Z,14.70
2019-02-17T18:12:51.917Z,15.23
2019-02-17T18:15:21.443Z,16.87
2019-02-17T18:17:54.234Z,17.77
2019-02-17T18:20:22.332Z,18.07
2019-02-17T18:22:51.802Z,17.73
2019-02-17T18:25:21.180Z,17.70
2019-02-17T18:27:50.618Z,18.43
2019-02-17T18:30:20.109Z,16.77
2019-02-17T18:32:49.528Z,17.63
2019-02-17T18:35:20.492Z,16.60
2019-02-17T18:37:50.187Z,16.17
2019-02-17T18:40:19.686Z,16.23
2019-02-17T18:42:49.118Z,16.03
2019-02-17T18:45:18.565Z,15.07
2019-02-17T18:47:48.044Z,14.67
2019-02-17T18:50:17.560Z,15.10
2019-02-17T18:52:46.918Z,16.07
2019-02-17T18:55:16.320Z,14.10
2019-02-17T18:57:50.261Z,14.93
2019-02-17T19:00:17.429Z,14.63
2019-02-17T19:02:47.160Z,13.73
2019-02-17T19:05:16.623Z,11.43
2019-02-17T19:07:46.049Z,13.53
2019-02-17T19:10:15.652Z,14.60
2019-02-17T19:12:45.070Z,14.43
2019-02-17T19:15:14.532Z,11.97
2019-02-17T19:17:43.932Z,12.07
2019-02-17T19:20:15.601Z,12.23
2019-02-17T19:22:44.821Z,14.07
2019-02-17T19:25:14.219Z,14.00
2019-02-17T19:27:43.670Z,15.57
2019-02-17T19:30:14.331Z,12.93
2019-02-17T19:32:43.746Z,14.30
2019-02-17T19:35:13.638Z,17.80
2019-02-17T19:37:43.953Z,16.03
2019-02-17T19:40:13.818Z,16.67
2019-02-17T19:42:43.242Z,16.80
2019-02-17T19:45:12.985Z,16.30
2019-02-17T19:47:42.478Z,15.30
2019-02-17T19:50:12.343Z,14.77
2019-02-17T19:52:41.749Z,15.13
2019-02-17T19:55:11.699Z,15.23
2019-02-17T19:57:41.267Z,15.90
2019-02-17T20:00:12.366Z,16.73
2019-02-17T20:02:54.892Z,17.53
2019-02-17T20:05:26.818Z,17.03
2019-02-17T20:07:56.221Z,16.67
2019-02-17T20:10:25.619Z,13.60
2019-02-17T20:12:54.985Z,14.00
2019-02-17T20:15:26.352Z,14.93
2019-02-17T20:17:55.745Z,12.67
2019-02-17T20:20:25.144Z,13.27
2019-02-17T20:22:54.570Z,13.07
2019-02-17T20:25:23.982Z,12.40
2019-02-17T20:27:53.375Z,12.47
2019-02-17T20:30:22.754Z,12.83
2019-02-17T20:32:52.488Z,13.70
2019-02-17T20:35:21.884Z,13.23
2019-02-17T20:37:51.536Z,13.50
2019-02-17T20:40:20.919Z,14.07
2019-02-17T20:42:50.302Z,14.93
2019-02-17T20:45:19.720Z,14.17
2019-02-17T20:47:49.066Z,13.73
2019-02-17T20:50:18.496Z,13.40
2019-02-17T20:52:47.987Z,13.93
2019-02-17T20:55:17.376Z,15.43
2019-02-17T20:57:46.805Z,11.63
2019-02-17T21:00:16.723Z,12.97
2019-02-17T21:02:46.120Z,11.57
2019-02-17T21:05:15.499Z,11.37
2019-02-17T21:07:44.923Z,11.87
2019-02-17T21:10:14.480Z,13.00
2019-02-17T21:12:43.840Z,13.23
2019-02-17T21:15:14.365Z,13.20
2019-02-17T21:17:43.869Z,12.03
2019-02-17T21:20:13.774Z,11.90
2019-02-17T21:22:43.445Z,14.17
2019-02-17T21:25:12.909Z,14.23
2019-02-17T21:27:42.299Z,14.10
2019-02-17T21:30:12.025Z,13.43
2019-02-17T21:32:41.470Z,14.40
2019-02-17T21:35:14.521Z,15.07
2019-02-17T21:37:43.937Z,14.67
2019-02-17T21:40:13.458Z,14.33
2019-02-17T21:42:42.924Z,15.03
2019-02-17T21:45:12.623Z,15.23
2019-02-17T21:47:41.965Z,15.27
2019-02-17T21:50:11.571Z,15.87
2019-02-17T21:52:41.975Z,15.87
2019-02-17T21:55:11.858Z,14.50
2019-02-17T21:57:41.360Z,15.50
2019-02-17T22:00:14.580Z,15.70
2019-02-17T22:02:43.953Z,16.40
2019-02-17T22:05:13.440Z,14.97
2019-02-17T22:07:42.901Z,16.40
2019-02-17T22:10:12.799Z,17.67
2019-02-17T22:12:42.156Z,17.17
2019-02-17T22:15:13.525Z,18.00
2019-02-17T22:17:42.880Z,17.17
2019-02-17T22:20:12.530Z,18.20
2019-02-17T22:22:42.147Z,17.27
2019-02-17T22:25:11.662Z,17.13
2019-02-17T22:27:41.017Z,17.00
2019-02-17T22:30:10.722Z,17.27
2019-02-17T22:32:40.219Z,17.70
2019-02-17T22:35:10.350Z,16.90
2019-02-17T22:37:39.746Z,17.10
2019-02-17T22:40:09.712Z,17.40
2019-02-17T22:42:39.226Z,17.40
2019-02-17T22:45:09.139Z,16.97
2019-02-17T22:47:38.576Z,18.30
2019-02-17T22:50:09.032Z,18.37
2019-02-17T22:52:38.408Z,18.07
2019-02-17T22:55:09.231Z,17.70
2019-02-17T22:57:38.592Z,18.00
2019-02-17T23:00:14.963Z,17.00
2019-02-17T23:02:44.414Z,17.93
2019-02-17T23:05:13.894Z,19.43
2019-02-17T23:07:43.267Z,17.87
2019-02-17T23:10:12.694Z,17.60
2019-02-17T23:12:42.052Z,18.20
2019-02-17T23:15:11.444Z,19.80
2019-02-17T23:17:40.893Z,22.20
2019-02-17T23:20:10.264Z,22.53
2019-02-17T23:22:39.717Z,23.23
2019-02-17T23:25:09.502Z,24.03
2019-02-17T23:27:38.842Z,24.53
2019-02-17T23:30:08.249Z,23.77
2019-02-17T23:32:37.685Z,23.00
2019-02-17T23:35:07.265Z,23.60
2019-02-17T23:37:36.620Z,23.37
2019-02-17T23:40:08.659Z,24.17
2019-02-17T23:42:38.016Z,23.93
2019-02-17T23:45:08.218Z,23.73
2019-02-17T23:47:37.604Z,24.70
2019-02-17T23:50:07.137Z,24.07
2019-02-17T23:52:36.545Z,26.37
2019-02-17T23:55:06.169Z,24.97
2019-02-17T23:57:35.567Z,25.30
